sensor_id;sensor_type;location;lat;lon;timestamp;temperature;humidity
75799;DHT22;65035;44.726;37.764;2022-12-20T00:00:51;17.63;114.52
75799;DHT22;65035;44.726;37.764;2022-12-20T00:02:42;17.63;115.80
75799;DHT22;65035;44.726;37.764;2022-12-20T00:03:45;17.72;110.03
75799;DHT22;65035;44.726;37.764;2022-12-20T00:04:50;17.64;103.51
75799;DHT22;65035;44.726;37.764;2022-12-20T00:06:47;17.59;114.35
75799;DHT22;65035;44.726;37.764;2022-12-20T00:07:51;17.61;116.70
75799;DHT22;65035;44.726;37.764;2022-12-20T00:08:58;17.61;115.53
75799;DHT22;65035;44.726;37.764;2022-12-20T00:10:02;17.66;109.04
75799;DHT22;65035;44.726;37.764;2022-12-20T00:11:06;17.55;118.99
75799;DHT22;65035;44.726;37.764;2022-12-20T00:12:09;17.53;118.99
75799;DHT22;65035;44.726;37.764;2022-12-20T00:13:12;17.55;118.99
75799;DHT22;65035;44.726;37.764;2022-12-20T00:14:16;17.49;118.99
75799;DHT22;65035;44.726;37.764;2022-12-20T00:15:19;17.51;118.99
75799;DHT22;65035;44.726;37.764;2022-12-20T00:16:24;17.53;118.99
75799;DHT22;65035;44.726;37.764;2022-12-20T00:17:27;17.48;118.99
75799;DHT22;65035;44.726;37.764;2022-12-20T00:18:30;17.50;117.50
75799;DHT22;65035;44.726;37.764;2022-12-20T00:19:33;17.51;116.22
75799;DHT22;65035;44.726;37.764;2022-12-20T00:20:35;17.54;112.27
75799;DHT22;65035;44.726;37.764;2022-12-20T00:21:38;17.54;111.01
75799;DHT22;65035;44.726;37.764;2022-12-20T00:23:29;17.52;118.99
75799;DHT22;65035;44.726;37.764;2022-12-20T00:24:32;17.53;115.67
75799;DHT22;65035;44.726;37.764;2022-12-20T00:25:35;17.51;118.99
75799;DHT22;65035;44.726;37.764;2022-12-20T00:26:38;17.54;118.99
75799;DHT22;65035;44.726;37.764;2022-12-20T00:27:41;17.51;118.99
75799;DHT22;65035;44.726;37.764;2022-12-20T00:29:32;17.43;118.99
75799;DHT22;65035;44.726;37.764;2022-12-20T00:30:35;17.41;118.99
75799;DHT22;65035;44.726;37.764;2022-12-20T00:31:38;17.47;118.99
75799;DHT22;65035;44.726;37.764;2022-12-20T00:33:33;17.44;118.99
75799;DHT22;65035;44.726;37.764;2022-12-20T00:34:36;17.39;118.99
75799;DHT22;65035;44.726;37.764;2022-12-20T00:35:42;17.43;118.99
75799;DHT22;65035;44.726;37.764;2022-12-20T00:37:55;17.39;118.99
75799;DHT22;65035;44.726;37.764;2022-12-20T00:38:59;17.39;118.99
75799;DHT22;65035;44.726;37.764;2022-12-20T00:40:03;17.40;118.99
75799;DHT22;65035;44.726;37.764;2022-12-20T00:41:13;17.37;118.99
75799;DHT22;65035;44.726;37.764;2022-12-20T00:42:16;17.39;118.99
75799;DHT22;65035;44.726;37.764;2022-12-20T00:43:19;17.40;118.99
75799;DHT22;65035;44.726;37.764;2022-12-20T00:44:22;17.44;118.99
75799;DHT22;65035;44.726;37.764;2022-12-20T00:45:26;17.40;118.99
75799;DHT22;65035;44.726;37.764;2022-12-20T00:46:29;17.48;116.25
75799;DHT22;65035;44.726;37.764;2022-12-20T00:47:34;17.46;118.99
75799;DHT22;65035;44.726;37.764;2022-12-20T00:48:38;17.43;118.99
75799;DHT22;65035;44.726;37.764;2022-12-20T00:51:07;17.41;118.99
75799;DHT22;65035;44.726;37.764;2022-12-20T00:53:12;17.48;118.99
75799;DHT22;65035;44.726;37.764;2022-12-20T00:54:16;17.40;118.99
75799;DHT22;65035;44.726;37.764;2022-12-20T00:55:19;17.43;118.99
75799;DHT22;65035;44.726;37.764;2022-12-20T00:56:22;17.44;118.99
75799;DHT22;65035;44.726;37.764;2022-12-20T00:58:13;17.39;118.99
75799;DHT22;65035;44.726;37.764;2022-12-20T01:00:19;17.40;118.99
75799;DHT22;65035;44.726;37.764;2022-12-20T01:01:25;17.37;118.99
75799;DHT22;65035;44.726;37.764;2022-12-20T01:02:31;17.40;118.99
75799;DHT22;65035;44.726;37.764;2022-12-20T01:03:34;17.38;118.99
75799;DHT22;65035;44.726;37.764;2022-12-20T01:04:37;17.46;118.99
75799;DHT22;65035;44.726;37.764;2022-12-20T01:05:39;17.45;118.99
75799;DHT22;65035;44.726;37.764;2022-12-20T01:06:51;17.45;117.66
75799;DHT22;65035;44.726;37.764;2022-12-20T01:07:54;17.41;118.99
75799;DHT22;65035;44.726;37.764;2022-12-20T01:08:57;17.40;118.99
75799;DHT22;65035;44.726;37.764;2022-12-20T01:10:00;17.37;118.99
75799;DHT22;65035;44.726;37.764;2022-12-20T01:11:07;17.38;118.99
75799;DHT22;65035;44.726;37.764;2022-12-20T01:12:10;17.37;118.99
75799;DHT22;65035;44.726;37.764;2022-12-20T01:13:13;17.38;118.99
75799;DHT22;65035;44.726;37.764;2022-12-20T01:14:16;17.39;118.99
75799;DHT22;65035;44.726;37.764;2022-12-20T01:15:19;17.38;118.99
75799;DHT22;65035;44.726;37.764;2022-12-20T01:16:35;17.36;118.99
75799;DHT22;65035;44.726;37.764;2022-12-20T01:17:38;17.37;118.99
75799;DHT22;65035;44.726;37.764;2022-12-20T01:18:41;17.43;117.80
75799;DHT22;65035;44.726;37.764;2022-12-20T01:19:44;17.41;118.99
75799;DHT22;65035;44.726;37.764;2022-12-20T01:20:48;17.40;118.99
75799;DHT22;65035;44.726;37.764;2022-12-20T01:21:50;17.35;118.99
75799;DHT22;65035;44.726;37.764;2022-12-20T01:22:53;17.38;118.99
75799;DHT22;65035;44.726;37.764;2022-12-20T01:23:56;17.40;118.99
75799;DHT22;65035;44.726;37.764;2022-12-20T01:24:59;17.33;118.99
75799;DHT22;65035;44.726;37.764;2022-12-20T01:26:06;17.41;118.99
75799;DHT22;65035;44.726;37.764;2022-12-20T01:27:12;17.31;118.99
75799;DHT22;65035;44.726;37.764;2022-12-20T01:28:15;17.25;118.99
75799;DHT22;65035;44.726;37.764;2022-12-20T01:29:18;17.26;118.99
75799;DHT22;65035;44.726;37.764;2022-12-20T01:30:21;17.23;118.99
75799;DHT22;65035;44.726;37.764;2022-12-20T01:31:25;17.41;118.99
75799;DHT22;65035;44.726;37.764;2022-12-20T01:32:28;17.31;118.99
75799;DHT22;65035;44.726;37.764;2022-12-20T01:33:31;17.36;118.99
75799;DHT22;65035;44.726;37.764;2022-12-20T01:34:34;17.34;118.99
75799;DHT22;65035;44.726;37.764;2022-12-20T01:35:39;17.29;118.99
75799;DHT22;65035;44.726;37.764;2022-12-20T01:36:42;17.32;118.99
75799;DHT22;65035;44.726;37.764;2022-12-20T01:37:46;17.35;118.99
75799;DHT22;65035;44.726;37.764;2022-12-20T01:38:49;17.29;118.99
75799;DHT22;65035;44.726;37.764;2022-12-20T01:39:52;17.34;118.99
75799;DHT22;65035;44.726;37.764;2022-12-20T01:40:56;17.23;118.99
75799;DHT22;65035;44.726;37.764;2022-12-20T01:42:47;17.24;118.99
75799;DHT22;65035;44.726;37.764;2022-12-20T01:44:02;17.31;118.99
75799;DHT22;65035;44.726;37.764;2022-12-20T01:45:10;17.34;118.99
75799;DHT22;65035;44.726;37.764;2022-12-20T01:46:15;17.24;118.99
75799;DHT22;65035;44.726;37.764;2022-12-20T01:47:18;17.22;118.99
75799;DHT22;65035;44.726;37.764;2022-12-20T01:48:23;17.23;118.99
75799;DHT22;65035;44.726;37.764;2022-12-20T01:49:31;17.28;118.99
75799;DHT22;65035;44.726;37.764;2022-12-20T01:50:37;17.24;118.99
75799;DHT22;65035;44.726;37.764;2022-12-20T01:51:51;17.23;118.99
75799;DHT22;65035;44.726;37.764;2022-12-20T01:52:55;17.23;118.99
75799;DHT22;65035;44.726;37.764;2022-12-20T01:54:04;17.22;118.99
75799;DHT22;65035;44.726;37.764;2022-12-20T01:55:21;17.26;118.99
75799;DHT22;65035;44.726;37.764;2022-12-20T01:56:24;17.25;118.99
75799;DHT22;65035;44.726;37.764;2022-12-20T01:57:46;17.18;118.99
75799;DHT22;65035;44.726;37.764;2022-12-20T01:58:52;17.21;118.99
75799;DHT22;65035;44.726;37.764;2022-12-20T01:59:56;17.22;118.99
75799;DHT22;65035;44.726;37.764;2022-12-20T02:01:00;17.19;118.99
75799;DHT22;65035;44.726;37.764;2022-12-20T02:02:07;17.21;118.99
75799;DHT22;65035;44.726;37.764;2022-12-20T02:03:13;17.23;118.99
75799;DHT22;65035;44.726;37.764;2022-12-20T02:04:16;17.23;118.99
75799;DHT22;65035;44.726;37.764;2022-12-20T02:05:21;17.18;118.99
75799;DHT22;65035;44.726;37.764;2022-12-20T02:06:26;17.21;118.99
75799;DHT22;65035;44.726;37.764;2022-12-20T02:07:31;17.28;118.99
75799;DHT22;65035;44.726;37.764;2022-12-20T02:08:35;17.28;118.99
75799;DHT22;65035;44.726;37.764;2022-12-20T02:09:38;17.24;118.99
75799;DHT22;65035;44.726;37.764;2022-12-20T02:12:44;17.23;118.99
75799;DHT22;65035;44.726;37.764;2022-12-20T02:15:45;17.28;118.99
75799;DHT22;65035;44.726;37.764;2022-12-20T02:22:15;17.32;118.99
75799;DHT22;65035;44.726;37.764;2022-12-20T02:26:39;17.51;103.76
75799;DHT22;65035;44.726;37.764;2022-12-20T02:27:59;17.50;93.43
75799;DHT22;65035;44.726;37.764;2022-12-20T02:30:23;17.49;105.76
75799;DHT22;65035;44.726;37.764;2022-12-20T02:31:36;17.48;105.39
75799;DHT22;65035;44.726;37.764;2022-12-20T02:32:50;17.49;99.83
75799;DHT22;65035;44.726;37.764;2022-12-20T02:34:43;17.28;118.99
75799;DHT22;65035;44.726;37.764;2022-12-20T02:35:46;17.26;118.99
75799;DHT22;65035;44.726;37.764;2022-12-20T02:36:50;17.25;118.99
75799;DHT22;65035;44.726;37.764;2022-12-20T02:37:54;17.18;118.99
75799;DHT22;65035;44.726;37.764;2022-12-20T02:40:51;17.23;118.99
75799;DHT22;65035;44.726;37.764;2022-12-20T02:42:18;17.32;118.99
75799;DHT22;65035;44.726;37.764;2022-12-20T02:43:23;17.34;118.99
75799;DHT22;65035;44.726;37.764;2022-12-20T02:45:08;17.37;118.99
75799;DHT22;65035;44.726;37.764;2022-12-20T02:46:20;17.29;118.99
75799;DHT22;65035;44.726;37.764;2022-12-20T02:47:39;17.34;112.55
75799;DHT22;65035;44.726;37.764;2022-12-20T02:48:44;17.34;118.99
75799;DHT22;65035;44.726;37.764;2022-12-20T02:49:49;17.23;116.57
75799;DHT22;65035;44.726;37.764;2022-12-20T02:50:53;17.43;114.53
75799;DHT22;65035;44.726;37.764;2022-12-20T02:52:01;17.36;110.01
75799;DHT22;65035;44.726;37.764;2022-12-20T02:53:06;17.28;118.99
75799;DHT22;65035;44.726;37.764;2022-12-20T02:54:12;17.34;118.99
75799;DHT22;65035;44.726;37.764;2022-12-20T02:55:15;17.33;118.99
75799;DHT22;65035;44.726;37.764;2022-12-20T02:58:03;17.26;118.99
75799;DHT22;65035;44.726;37.764;2022-12-20T02:59:12;17.25;118.99
75799;DHT22;65035;44.726;37.764;2022-12-20T03:00:18;17.21;118.99
75799;DHT22;65035;44.726;37.764;2022-12-20T03:01:29;17.20;118.99
75799;DHT22;65035;44.726;37.764;2022-12-20T03:02:33;17.18;118.99
75799;DHT22;65035;44.726;37.764;2022-12-20T03:03:58;17.26;118.99
75799;DHT22;65035;44.726;37.764;2022-12-20T03:05:52;17.16;118.99
75799;DHT22;65035;44.726;37.764;2022-12-20T03:07:01;17.16;118.99
75799;DHT22;65035;44.726;37.764;2022-12-20T03:08:04;17.16;118.99
75799;DHT22;65035;44.726;37.764;2022-12-20T03:09:07;17.14;118.99
75799;DHT22;65035;44.726;37.764;2022-12-20T03:10:12;17.24;118.99
75799;DHT22;65035;44.726;37.764;2022-12-20T03:11:17;17.17;118.99
75799;DHT22;65035;44.726;37.764;2022-12-20T03:13:10;17.18;118.99
75799;DHT22;65035;44.726;37.764;2022-12-20T03:14:20;17.17;118.99
75799;DHT22;65035;44.726;37.764;2022-12-20T03:15:26;17.16;118.99
75799;DHT22;65035;44.726;37.764;2022-12-20T03:17:19;17.19;118.99
75799;DHT22;65035;44.726;37.764;2022-12-20T03:18:22;17.28;118.99
75799;DHT22;65035;44.726;37.764;2022-12-20T03:19:25;17.29;118.99
75799;DHT22;65035;44.726;37.764;2022-12-20T03:20:28;17.30;118.99
75799;DHT22;65035;44.726;37.764;2022-12-20T03:21:31;17.24;118.99
75799;DHT22;65035;44.726;37.764;2022-12-20T03:22:35;17.25;118.99
75799;DHT22;65035;44.726;37.764;2022-12-20T03:23:37;17.25;118.99
75799;DHT22;65035;44.726;37.764;2022-12-20T03:25:49;17.30;118.99
75799;DHT22;65035;44.726;37.764;2022-12-20T03:27:07;17.14;118.99
75799;DHT22;65035;44.726;37.764;2022-12-20T03:28:10;17.28;116.87
75799;DHT22;65035;44.726;37.764;2022-12-20T03:29:13;17.23;118.99
75799;DHT22;65035;44.726;37.764;2022-12-20T03:30:16;17.28;118.99
75799;DHT22;65035;44.726;37.764;2022-12-20T03:31:19;17.30;118.99
75799;DHT22;65035;44.726;37.764;2022-12-20T03:32:26;17.19;118.99
75799;DHT22;65035;44.726;37.764;2022-12-20T03:33:30;17.20;118.99
75799;DHT22;65035;44.726;37.764;2022-12-20T03:34:40;17.23;118.99
75799;DHT22;65035;44.726;37.764;2022-12-20T03:35:44;17.35;116.16
75799;DHT22;65035;44.726;37.764;2022-12-20T03:36:48;17.32;118.99
75799;DHT22;65035;44.726;37.764;2022-12-20T03:38:38;17.40;109.10
75799;DHT22;65035;44.726;37.764;2022-12-20T03:39:42;17.34;112.94
75799;DHT22;65035;44.726;37.764;2022-12-20T03:40:45;17.34;113.93
75799;DHT22;65035;44.726;37.764;2022-12-20T03:41:52;17.44;106.95
75799;DHT22;65035;44.726;37.764;2022-12-20T03:42:55;17.46;114.77
75799;DHT22;65035;44.726;37.764;2022-12-20T03:43:57;17.38;115.29
75799;DHT22;65035;44.726;37.764;2022-12-20T03:45:01;17.40;108.60
75799;DHT22;65035;44.726;37.764;2022-12-20T03:47:04;17.46;112.32
75799;DHT22;65035;44.726;37.764;2022-12-20T03:48:10;17.39;118.99
75799;DHT22;65035;44.726;37.764;2022-12-20T03:49:13;17.38;115.09
75799;DHT22;65035;44.726;37.764;2022-12-20T03:50:21;17.38;109.75
75799;DHT22;65035;44.726;37.764;2022-12-20T03:52:13;17.30;117.46
75799;DHT22;65035;44.726;37.764;2022-12-20T03:55:42;17.33;104.70
75799;DHT22;65035;44.726;37.764;2022-12-20T03:58:22;17.33;118.37
75799;DHT22;65035;44.726;37.764;2022-12-20T03:59:25;17.34;118.97
75799;DHT22;65035;44.726;37.764;2022-12-20T04:00:28;17.36;118.99
75799;DHT22;65035;44.726;37.764;2022-12-20T04:01:47;17.36;106.34
75799;DHT22;65035;44.726;37.764;2022-12-20T04:02:50;17.39;96.75
75799;DHT22;65035;44.726;37.764;2022-12-20T04:03:54;17.32;118.99
75799;DHT22;65035;44.726;37.764;2022-12-20T04:05:00;17.28;118.99
75799;DHT22;65035;44.726;37.764;2022-12-20T04:06:04;17.30;118.99
75799;DHT22;65035;44.726;37.764;2022-12-20T04:07:08;17.39;118.99
75799;DHT22;65035;44.726;37.764;2022-12-20T04:08:13;17.40;114.93
75799;DHT22;65035;44.726;37.764;2022-12-20T04:09:16;17.40;118.40
75799;DHT22;65035;44.726;37.764;2022-12-20T04:10:23;17.45;116.83
75799;DHT22;65035;44.726;37.764;2022-12-20T04:11:26;17.49;110.57
75799;DHT22;65035;44.726;37.764;2022-12-20T04:12:39;17.51;116.64
75799;DHT22;65035;44.726;37.764;2022-12-20T04:13:46;17.56;103.57
75799;DHT22;65035;44.726;37.764;2022-12-20T04:14:50;17.55;109.39
75799;DHT22;65035;44.726;37.764;2022-12-20T04:15:52;17.63;112.45
75799;DHT22;65035;44.726;37.764;2022-12-20T04:17:02;17.65;118.99
75799;DHT22;65035;44.726;37.764;2022-12-20T04:18:07;17.82;81.27
75799;DHT22;65035;44.726;37.764;2022-12-20T04:19:11;17.84;107.21
75799;DHT22;65035;44.726;37.764;2022-12-20T04:20:18;17.81;105.37
75799;DHT22;65035;44.726;37.764;2022-12-20T04:21:31;17.88;91.95
75799;DHT22;65035;44.726;37.764;2022-12-20T04:22:34;17.84;90.94
75799;DHT22;65035;44.726;37.764;2022-12-20T04:23:40;17.60;118.99
75799;DHT22;65035;44.726;37.764;2022-12-20T04:24:44;17.59;118.99
75799;DHT22;65035;44.726;37.764;2022-12-20T04:25:54;17.51;118.99
75799;DHT22;65035;44.726;37.764;2022-12-20T04:26:57;17.63;118.99
75799;DHT22;65035;44.726;37.764;2022-12-20T04:28:00;17.61;118.99
75799;DHT22;65035;44.726;37.764;2022-12-20T04:29:04;17.56;118.99
75799;DHT22;65035;44.726;37.764;2022-12-20T04:30:08;17.51;118.99
75799;DHT22;65035;44.726;37.764;2022-12-20T04:31:11;17.54;118.99
75799;DHT22;65035;44.726;37.764;2022-12-20T04:32:16;17.58;118.99
75799;DHT22;65035;44.726;37.764;2022-12-20T04:33:19;17.59;118.99
75799;DHT22;65035;44.726;37.764;2022-12-20T04:34:22;17.54;118.99
75799;DHT22;65035;44.726;37.764;2022-12-20T04:35:25;17.54;118.99
75799;DHT22;65035;44.726;37.764;2022-12-20T04:36:28;17.62;118.99
75799;DHT22;65035;44.726;37.764;2022-12-20T04:37:33;17.65;118.99
75799;DHT22;65035;44.726;37.764;2022-12-20T04:38:36;17.63;118.99
75799;DHT22;65035;44.726;37.764;2022-12-20T04:39:39;17.61;118.99
75799;DHT22;65035;44.726;37.764;2022-12-20T04:40:55;17.67;118.99
75799;DHT22;65035;44.726;37.764;2022-12-20T04:41:59;17.65;118.99
75799;DHT22;65035;44.726;37.764;2022-12-20T04:43:02;17.62;118.99
75799;DHT22;65035;44.726;37.764;2022-12-20T04:44:05;17.63;118.99
75799;DHT22;65035;44.726;37.764;2022-12-20T04:45:11;17.64;118.99
75799;DHT22;65035;44.726;37.764;2022-12-20T04:46:15;17.62;118.99
75799;DHT22;65035;44.726;37.764;2022-12-20T04:47:18;17.67;118.99
75799;DHT22;65035;44.726;37.764;2022-12-20T04:48:26;17.63;118.99
75799;DHT22;65035;44.726;37.764;2022-12-20T04:49:49;17.65;118.99
75799;DHT22;65035;44.726;37.764;2022-12-20T04:50:55;17.61;118.99
75799;DHT22;65035;44.726;37.764;2022-12-20T04:51:59;17.64;118.99
75799;DHT22;65035;44.726;37.764;2022-12-20T04:53:23;17.67;118.99
75799;DHT22;65035;44.726;37.764;2022-12-20T04:54:45;17.63;118.99
75799;DHT22;65035;44.726;37.764;2022-12-20T04:55:52;17.65;118.99
75799;DHT22;65035;44.726;37.764;2022-12-20T04:56:55;17.61;118.99
75799;DHT22;65035;44.726;37.764;2022-12-20T04:57:58;17.63;118.99
75799;DHT22;65035;44.726;37.764;2022-12-20T04:59:04;17.58;118.99
75799;DHT22;65035;44.726;37.764;2022-12-20T05:00:08;17.56;118.99
75799;DHT22;65035;44.726;37.764;2022-12-20T05:01:16;17.59;118.99
75799;DHT22;65035;44.726;37.764;2022-12-20T05:02:23;17.58;118.99
75799;DHT22;65035;44.726;37.764;2022-12-20T05:03:35;17.56;118.99
75799;DHT22;65035;44.726;37.764;2022-12-20T05:04:38;17.55;118.99
75799;DHT22;65035;44.726;37.764;2022-12-20T05:05:44;17.52;118.99
75799;DHT22;65035;44.726;37.764;2022-12-20T05:08:24;17.59;118.99
75799;DHT22;65035;44.726;37.764;2022-12-20T05:10:16;17.53;118.99
75799;DHT22;65035;44.726;37.764;2022-12-20T05:11:19;17.54;118.99
75799;DHT22;65035;44.726;37.764;2022-12-20T05:13:10;17.51;118.99
75799;DHT22;65035;44.726;37.764;2022-12-20T05:14:16;17.51;118.99
75799;DHT22;65035;44.726;37.764;2022-12-20T05:15:19;17.52;118.99
75799;DHT22;65035;44.726;37.764;2022-12-20T05:16:22;17.49;118.99
75799;DHT22;65035;44.726;37.764;2022-12-20T05:17:25;17.54;118.99
75799;DHT22;65035;44.726;37.764;2022-12-20T05:18:28;17.61;118.99
75799;DHT22;65035;44.726;37.764;2022-12-20T05:19:35;17.47;118.99
75799;DHT22;65035;44.726;37.764;2022-12-20T05:20:39;17.59;118.99
75799;DHT22;65035;44.726;37.764;2022-12-20T05:21:42;17.56;118.99
75799;DHT22;65035;44.726;37.764;2022-12-20T05:23:04;17.59;118.99
75799;DHT22;65035;44.726;37.764;2022-12-20T05:24:32;17.50;118.99
75799;DHT22;65035;44.726;37.764;2022-12-20T05:26:01;17.55;118.99
75799;DHT22;65035;44.726;37.764;2022-12-20T05:27:24;17.51;118.99
75799;DHT22;65035;44.726;37.764;2022-12-20T05:28:27;17.45;118.99
75799;DHT22;65035;44.726;37.764;2022-12-20T05:29:30;17.47;118.99
75799;DHT22;65035;44.726;37.764;2022-12-20T05:30:33;17.59;118.99
75799;DHT22;65035;44.726;37.764;2022-12-20T05:31:36;17.56;118.99
75799;DHT22;65035;44.726;37.764;2022-12-20T05:32:40;17.59;118.99
75799;DHT22;65035;44.726;37.764;2022-12-20T05:33:43;17.56;118.99
75799;DHT22;65035;44.726;37.764;2022-12-20T05:34:46;17.53;118.99
75799;DHT22;65035;44.726;37.764;2022-12-20T05:35:50;17.59;118.99
75799;DHT22;65035;44.726;37.764;2022-12-20T05:36:53;17.55;118.99
75799;DHT22;65035;44.726;37.764;2022-12-20T05:37:58;17.53;118.99
75799;DHT22;65035;44.726;37.764;2022-12-20T05:39:01;17.53;118.99
75799;DHT22;65035;44.726;37.764;2022-12-20T05:40:07;17.53;118.99
75799;DHT22;65035;44.726;37.764;2022-12-20T05:41:10;17.48;118.99
75799;DHT22;65035;44.726;37.764;2022-12-20T05:42:15;17.52;118.99
75799;DHT22;65035;44.726;37.764;2022-12-20T05:43:19;17.50;118.99
75799;DHT22;65035;44.726;37.764;2022-12-20T05:44:22;17.56;118.99
75799;DHT22;65035;44.726;37.764;2022-12-20T05:45:28;17.56;118.99
75799;DHT22;65035;44.726;37.764;2022-12-20T05:46:36;17.58;118.99
75799;DHT22;65035;44.726;37.764;2022-12-20T05:47:44;17.56;118.99
75799;DHT22;65035;44.726;37.764;2022-12-20T05:48:47;17.49;118.99
75799;DHT22;65035;44.726;37.764;2022-12-20T05:49:50;17.56;118.99
75799;DHT22;65035;44.726;37.764;2022-12-20T05:50:54;17.50;118.99
75799;DHT22;65035;44.726;37.764;2022-12-20T05:51:56;17.47;118.99
75799;DHT22;65035;44.726;37.764;2022-12-20T05:53:00;17.51;118.99
75799;DHT22;65035;44.726;37.764;2022-12-20T05:54:04;17.50;118.99
75799;DHT22;65035;44.726;37.764;2022-12-20T05:55:23;17.56;118.99
75799;DHT22;65035;44.726;37.764;2022-12-20T05:56:27;17.62;118.99
75799;DHT22;65035;44.726;37.764;2022-12-20T05:57:30;17.56;118.99
75799;DHT22;65035;44.726;37.764;2022-12-20T05:58:33;17.60;118.99
75799;DHT22;65035;44.726;37.764;2022-12-20T05:59:39;17.58;118.99
75799;DHT22;65035;44.726;37.764;2022-12-20T06:00:55;17.62;118.99
75799;DHT22;65035;44.726;37.764;2022-12-20T06:01:59;17.62;118.99
75799;DHT22;65035;44.726;37.764;2022-12-20T06:03:02;17.58;118.99
75799;DHT22;65035;44.726;37.764;2022-12-20T06:04:06;17.50;118.99
75799;DHT22;65035;44.726;37.764;2022-12-20T06:05:09;17.52;118.99
75799;DHT22;65035;44.726;37.764;2022-12-20T06:06:13;17.49;118.99
75799;DHT22;65035;44.726;37.764;2022-12-20T06:07:18;17.56;118.99
75799;DHT22;65035;44.726;37.764;2022-12-20T06:08:25;17.54;118.99
75799;DHT22;65035;44.726;37.764;2022-12-20T06:09:30;17.58;118.99
75799;DHT22;65035;44.726;37.764;2022-12-20T06:10:43;17.46;118.99
75799;DHT22;65035;44.726;37.764;2022-12-20T06:11:50;17.45;118.99
75799;DHT22;65035;44.726;37.764;2022-12-20T06:12:55;17.40;118.99
75799;DHT22;65035;44.726;37.764;2022-12-20T06:13:59;17.49;118.99
75799;DHT22;65035;44.726;37.764;2022-12-20T06:15:03;17.59;118.99
75799;DHT22;65035;44.726;37.764;2022-12-20T06:16:06;17.55;118.99
75799;DHT22;65035;44.726;37.764;2022-12-20T06:17:09;17.53;118.99
75799;DHT22;65035;44.726;37.764;2022-12-20T06:18:13;17.55;118.99
75799;DHT22;65035;44.726;37.764;2022-12-20T06:19:16;17.61;118.99
75799;DHT22;65035;44.726;37.764;2022-12-20T06:20:23;17.58;118.99
75799;DHT22;65035;44.726;37.764;2022-12-20T06:21:26;17.52;118.99
75799;DHT22;65035;44.726;37.764;2022-12-20T06:22:30;17.59;118.99
75799;DHT22;65035;44.726;37.764;2022-12-20T06:23:33;17.61;118.99
75799;DHT22;65035;44.726;37.764;2022-12-20T06:24:45;17.62;118.99
75799;DHT22;65035;44.726;37.764;2022-12-20T06:25:50;17.56;118.99
75799;DHT22;65035;44.726;37.764;2022-12-20T06:26:55;17.60;118.99
75799;DHT22;65035;44.726;37.764;2022-12-20T06:28:00;17.53;118.99
75799;DHT22;65035;44.726;37.764;2022-12-20T06:29:04;17.64;118.99
75799;DHT22;65035;44.726;37.764;2022-12-20T06:30:16;17.60;118.99
75799;DHT22;65035;44.726;37.764;2022-12-20T06:31:41;17.58;118.99
75799;DHT22;65035;44.726;37.764;2022-12-20T06:32:43;17.50;118.99
75799;DHT22;65035;44.726;37.764;2022-12-20T06:33:47;17.61;118.99
75799;DHT22;65035;44.726;37.764;2022-12-20T06:34:51;17.69;118.99
75799;DHT22;65035;44.726;37.764;2022-12-20T06:35:55;17.72;118.99
75799;DHT22;65035;44.726;37.764;2022-12-20T06:36:58;17.63;118.99
75799;DHT22;65035;44.726;37.764;2022-12-20T06:38:04;17.67;118.99
75799;DHT22;65035;44.726;37.764;2022-12-20T06:39:09;17.74;118.99
75799;DHT22;65035;44.726;37.764;2022-12-20T06:40:20;17.64;118.99
75799;DHT22;65035;44.726;37.764;2022-12-20T06:41:23;17.59;118.99
75799;DHT22;65035;44.726;37.764;2022-12-20T06:42:27;17.69;118.99
75799;DHT22;65035;44.726;37.764;2022-12-20T06:43:30;17.81;118.99
75799;DHT22;65035;44.726;37.764;2022-12-20T06:44:33;17.77;103.38
75799;DHT22;65035;44.726;37.764;2022-12-20T06:45:36;17.72;103.61
75799;DHT22;65035;44.726;37.764;2022-12-20T06:46:43;17.83;114.86
75799;DHT22;65035;44.726;37.764;2022-12-20T06:47:45;17.61;118.99
75799;DHT22;65035;44.726;37.764;2022-12-20T06:48:49;17.63;118.99
75799;DHT22;65035;44.726;37.764;2022-12-20T06:49:52;17.64;118.99
75799;DHT22;65035;44.726;37.764;2022-12-20T06:50:57;17.65;118.99
75799;DHT22;65035;44.726;37.764;2022-12-20T06:52:01;17.62;118.99
75799;DHT22;65035;44.726;37.764;2022-12-20T06:53:16;17.74;118.99
75799;DHT22;65035;44.726;37.764;2022-12-20T06:54:19;17.74;118.99
75799;DHT22;65035;44.726;37.764;2022-12-20T06:55:22;17.58;118.99
75799;DHT22;65035;44.726;37.764;2022-12-20T06:56:25;17.49;118.99
75799;DHT22;65035;44.726;37.764;2022-12-20T06:57:28;17.48;118.99
75799;DHT22;65035;44.726;37.764;2022-12-20T06:58:31;17.44;118.99
75799;DHT22;65035;44.726;37.764;2022-12-20T06:59:34;17.78;99.45
75799;DHT22;65035;44.726;37.764;2022-12-20T07:00:37;17.70;118.99
75799;DHT22;65035;44.726;37.764;2022-12-20T07:01:39;17.66;118.99
75799;DHT22;65035;44.726;37.764;2022-12-20T07:02:42;17.70;118.99
75799;DHT22;65035;44.726;37.764;2022-12-20T07:03:46;17.74;118.99
75799;DHT22;65035;44.726;37.764;2022-12-20T07:04:49;17.81;118.99
75799;DHT22;65035;44.726;37.764;2022-12-20T07:05:53;17.74;118.99
75799;DHT22;65035;44.726;37.764;2022-12-20T07:06:56;17.72;117.47
75799;DHT22;65035;44.726;37.764;2022-12-20T07:07:59;17.65;118.99
75799;DHT22;65035;44.726;37.764;2022-12-20T07:09:04;17.59;118.99
75799;DHT22;65035;44.726;37.764;2022-12-20T07:10:07;17.67;118.99
75799;DHT22;65035;44.726;37.764;2022-12-20T07:11:10;17.51;118.99
75799;DHT22;65035;44.726;37.764;2022-12-20T07:12:13;17.77;118.99
75799;DHT22;65035;44.726;37.764;2022-12-20T07:13:16;17.67;118.99
75799;DHT22;65035;44.726;37.764;2022-12-20T07:14:19;17.73;118.99
75799;DHT22;65035;44.726;37.764;2022-12-20T07:15:21;17.69;118.99
75799;DHT22;65035;44.726;37.764;2022-12-20T07:16:24;17.65;118.99
75799;DHT22;65035;44.726;37.764;2022-12-20T07:17:27;17.75;118.99
75799;DHT22;65035;44.726;37.764;2022-12-20T07:18:30;17.73;118.99
75799;DHT22;65035;44.726;37.764;2022-12-20T07:19:34;17.73;118.99
75799;DHT22;65035;44.726;37.764;2022-12-20T07:20:38;17.92;110.01
75799;DHT22;65035;44.726;37.764;2022-12-20T07:21:42;17.85;118.99
75799;DHT22;65035;44.726;37.764;2022-12-20T07:22:48;17.75;118.99
75799;DHT22;65035;44.726;37.764;2022-12-20T07:23:51;17.78;101.67